Time;durP1;ratioP1;P1;durP2;ratioP2;P2;SDS_P1;SDS_P2;PMS_P1;PMS_P2;Temp;Humidity;BMP_temperature;BMP_pressure;BME280_temperature;BME280_humidity;BME280_pressure;Samples;Min_cycle;Max_cycle;Signal;HPM_P1;HPM_P2
2021/04/10 00:00:07;;;;;;;9.70;5.38;;;;;;;;;;5031499;28;20227;-84
2021/04/10 00:02:34;;;;;;;5.18;4.70;;;;;;;;;;5021723;28;20719;-84
2021/04/10 00:05:02;;;;;;;6.07;5.47;;;;;;;;;;5021036;28;20203;-83
2021/04/10 00:07:29;;;;;;;7.18;5.10;;;;;;;;;;5021028;28;20187;-83
2021/04/10 00:09:55;;;;;;;6.13;5.53;;;;;;;;;;5021109;28;20206;-83
2021/04/10 00:12:22;;;;;;;7.88;4.43;;;;;;;;;;5024464;28;20253;-80
2021/04/10 00:14:49;;;;;;;8.30;5.47;;;;;;;;;;5032711;28;20248;-82
2021/04/10 00:17:16;;;;;;;6.53;5.22;;;;;;;;;;5031173;28;20195;-82
2021/04/10 00:19:44;;;;;;;6.15;5.35;;;;;;;;;;5032290;28;20223;-81
2021/04/10 00:22:11;;;;;;;6.20;5.60;;;;;;;;;;5026647;28;20920;-83
2021/04/10 00:24:38;;;;;;;8.63;5.85;;;;;;;;;;5020031;28;20184;-83
2021/04/10 00:27:06;;;;;;;8.30;5.93;;;;;;;;;;5019439;28;20658;-83
2021/04/10 00:29:33;;;;;;;5.50;4.93;;;;;;;;;;5019640;28;20235;-83
2021/04/10 00:32:00;;;;;;;6.30;5.28;;;;;;;;;;5019615;28;20249;-84
2021/04/10 00:34:27;;;;;;;8.70;5.32;;;;;;;;;;5020027;28;20203;-82
2021/04/10 00:36:55;;;;;;;6.57;5.40;;;;;;;;;;5019702;28;20207;-84
2021/04/10 00:39:22;;;;;;;6.53;5.30;;;;;;;;;;5020259;28;20666;-84
2021/04/10 00:41:49;;;;;;;6.28;5.22;;;;;;;;;;5019773;28;20269;-83
2021/04/10 00:44:16;;;;;;;5.72;5.13;;;;;;;;;;5018920;28;20248;-83
2021/04/10 00:46:43;;;;;;;4.90;4.40;;;;;;;;;;5019704;28;20658;-83
2021/04/10 00:49:09;;;;;;;5.78;5.07;;;;;;;;;;5020820;28;20199;-82
2021/04/10 00:51:36;;;;;;;9.45;5.45;;;;;;;;;;5020276;28;20273;-84
2021/04/10 00:54:05;;;;;;;6.43;4.95;;;;;;;;;;5019652;28;20618;-83
2021/04/10 00:56:32;;;;;;;6.85;4.75;;;;;;;;;;5019767;28;20670;-83
2021/04/10 00:58:59;;;;;;;5.40;4.90;;;;;;;;;;5019784;28;20203;-83
2021/04/10 01:01:26;;;;;;;5.63;5.03;;;;;;;;;;5019744;28;20277;-83
2021/04/10 01:03:53;;;;;;;5.63;5.13;;;;;;;;;;5020280;28;20736;-85
2021/04/10 01:06:20;;;;;;;5.50;4.90;;;;;;;;;;5019953;28;20237;-82
2021/04/10 01:08:47;;;;;;;7.45;5.88;;;;;;;;;;5019762;28;20247;-84
2021/04/10 01:11:32;;;;;;;5.85;5.25;;;;;;;;;;5019987;28;20227;-83
2021/04/10 01:14:05;;;;;;;7.82;5.68;;;;;;;;;;5019821;28;20207;-85
2021/04/10 01:16:34;;;;;;;6.10;5.00;;;;;;;;;;5021857;28;20215;-83
2021/04/10 01:19:14;;;;;;;6.43;5.82;;;;;;;;;;5023968;28;20213;-83
2021/04/10 01:21:44;;;;;;;7.15;5.60;;;;;;;;;;5024307;28;20218;-84
2021/04/10 01:24:36;;;;;;;5.85;5.30;;;;;;;;;;5023596;28;20217;-84
2021/04/10 01:27:39;;;;;;;5.80;4.65;;;;;;;;;;5023839;28;20205;-84
2021/04/10 01:30:12;;;;;;;5.38;4.72;;;;;;;;;;5024326;28;20209;-84
2021/04/10 01:32:47;;;;;;;7.53;6.15;;;;;;;;;;5023955;28;20234;-84
2021/04/10 01:35:16;;;;;;;7.65;4.95;;;;;;;;;;5023856;28;20205;-83
2021/04/10 01:37:52;;;;;;;5.68;5.18;;;;;;;;;;5024235;28;20196;-83
2021/04/10 01:40:21;;;;;;;5.38;4.88;;;;;;;;;;5023959;28;20206;-83
2021/04/10 01:42:48;;;;;;;5.97;4.93;;;;;;;;;;5023130;28;20187;-83
2021/04/10 01:45:17;;;;;;;7.38;5.68;;;;;;;;;;5024034;28;20195;-83
2021/04/10 01:47:45;;;;;;;5.57;5.05;;;;;;;;;;5026759;28;20210;-82
2021/04/10 01:50:13;;;;;;;5.80;4.93;;;;;;;;;;5026964;28;20203;-81
2021/04/10 01:52:40;;;;;;;5.68;5.10;;;;;;;;;;5026289;28;20211;-83
2021/04/10 01:55:11;;;;;;;7.05;5.53;;;;;;;;;;5026655;28;20187;-82
2021/04/10 01:57:39;;;;;;;5.43;4.80;;;;;;;;;;5026265;28;20207;-82
2021/04/10 02:00:10;;;;;;;8.82;6.13;;;;;;;;;;5026998;28;20318;-81
2021/04/10 02:02:40;;;;;;;8.18;5.82;;;;;;;;;;5027392;28;20297;-82
2021/04/10 02:05:10;;;;;;;5.57;5.07;;;;;;;;;;5026855;28;20210;-82
2021/04/10 02:07:39;;;;;;;7.90;6.00;;;;;;;;;;5027082;28;20213;-82
2021/04/10 02:10:08;;;;;;;6.03;5.43;;;;;;;;;;5025698;28;20210;-81
2021/04/10 02:12:35;;;;;;;8.05;7.35;;;;;;;;;;5025762;28;20222;-81
2021/04/10 02:15:06;;;;;;;7.15;6.38;;;;;;;;;;5026746;28;20224;-82
2021/04/10 02:17:33;;;;;;;6.93;5.93;;;;;;;;;;5026801;28;20196;-82
2021/04/10 02:20:03;;;;;;;6.07;5.45;;;;;;;;;;5026625;28;20237;-82
2021/04/10 02:22:33;;;;;;;6.82;5.50;;;;;;;;;;5026605;28;20226;-83
2021/04/10 02:25:00;;;;;;;6.40;5.40;;;;;;;;;;5025998;28;20676;-84
2021/04/10 02:27:27;;;;;;;6.80;5.93;;;;;;;;;;5026278;28;20217;-83
2021/04/10 02:29:54;;;;;;;6.53;5.93;;;;;;;;;;5026492;28;20367;-82
2021/04/10 02:32:28;;;;;;;7.85;7.10;;;;;;;;;;5026244;28;20245;-82
2021/04/10 02:35:07;;;;;;;7.80;7.20;;;;;;;;;;5026301;28;20203;-83
2021/04/10 02:37:35;;;;;;;6.78;6.15;;;;;;;;;;5026399;28;20638;-83
2021/04/10 02:40:05;;;;;;;9.23;5.72;;;;;;;;;;5026106;28;20266;-83
2021/04/10 02:42:33;;;;;;;7.93;5.47;;;;;;;;;;5024894;28;20219;-83
2021/04/10 02:45:06;;;;;;;5.68;5.18;;;;;;;;;;5026553;28;20662;-82
2021/04/10 02:47:34;;;;;;;5.95;5.45;;;;;;;;;;5026629;28;20176;-81
2021/04/10 02:50:08;;;;;;;9.50;6.20;;;;;;;;;;5027172;28;20226;-82
2021/04/10 02:52:38;;;;;;;6.80;5.25;;;;;;;;;;5026849;28;20226;-83
2021/04/10 02:55:08;;;;;;;6.18;5.22;;;;;;;;;;5026947;28;20190;-82
2021/04/10 02:57:35;;;;;;;6.22;5.40;;;;;;;;;;5027338;28;20207;-83
2021/04/10 03:00:07;;;;;;;6.03;5.47;;;;;;;;;;5026709;28;20227;-82
2021/04/10 03:02:34;;;;;;;8.50;5.70;;;;;;;;;;5026388;28;20306;-82
2021/04/10 03:05:01;;;;;;;6.10;5.53;;;;;;;;;;5026316;28;20214;-82
2021/04/10 03:07:29;;;;;;;7.07;5.85;;;;;;;;;;5026052;28;20218;-83
2021/04/10 03:09:56;;;;;;;8.00;6.75;;;;;;;;;;5025608;28;20259;-83
2021/04/10 03:12:25;;;;;;;7.35;6.55;;;;;;;;;;5025806;28;20227;-81
2021/04/10 03:14:52;;;;;;;6.47;5.85;;;;;;;;;;5026759;28;20211;-81
2021/04/10 03:17:22;;;;;;;8.48;6.07;;;;;;;;;;5025668;28;20183;-81
2021/04/10 03:19:51;;;;;;;8.00;6.95;;;;;;;;;;5026217;28;20207;-81
2021/04/10 03:22:18;;;;;;;9.95;8.18;;;;;;;;;;5025700;28;20233;-81
2021/04/10 03:24:46;;;;;;;11.10;9.40;;;;;;;;;;5025743;28;20203;-81
2021/04/10 03:27:13;;;;;;;10.05;9.05;;;;;;;;;;5025059;28;20190;-81
2021/04/10 03:29:40;;;;;;;8.50;7.70;;;;;;;;;;5025765;28;20186;-82
2021/04/10 03:32:09;;;;;;;9.13;8.23;;;;;;;;;;5025078;28;20230;-81
2021/04/10 03:34:36;;;;;;;10.10;9.10;;;;;;;;;;5024989;28;20258;-81
2021/04/10 03:37:04;;;;;;;11.38;10.20;;;;;;;;;;5024670;28;20187;-83
2021/04/10 03:39:31;;;;;;;12.13;9.63;;;;;;;;;;5024325;28;20193;-82
2021/04/10 03:41:59;;;;;;;14.07;9.75;;;;;;;;;;5025193;28;20251;-82
2021/04/10 03:44:26;;;;;;;10.25;9.15;;;;;;;;;;5024819;28;20190;-82
2021/04/10 03:46:53;;;;;;;9.80;8.00;;;;;;;;;;5024710;28;20199;-82
2021/04/10 03:49:20;;;;;;;7.80;6.95;;;;;;;;;;5024822;28;20673;-83
2021/04/10 03:51:48;;;;;;;9.10;8.20;;;;;;;;;;5023861;28;20732;-81
2021/04/10 03:54:15;;;;;;;9.43;8.52;;;;;;;;;;5024178;28;20697;-81
2021/04/10 03:56:42;;;;;;;8.52;7.72;;;;;;;;;;5025278;28;20285;-82
2021/04/10 03:59:09;;;;;;;10.55;9.55;;;;;;;;;;5025879;28;20206;-81
2021/04/10 04:01:36;;;;;;;11.40;10.38;;;;;;;;;;5024972;28;20305;-82
2021/04/10 04:04:05;;;;;;;14.10;11.85;;;;;;;;;;5025184;28;20266;-81
2021/04/10 04:06:31;;;;;;;12.57;11.38;;;;;;;;;;5024001;28;20207;-81
2021/04/10 04:08:58;;;;;;;11.73;10.52;;;;;;;;;;5024259;28;20265;-80
2021/04/10 04:11:26;;;;;;;13.43;12.02;;;;;;;;;;5023780;28;20223;-81
2021/04/10 04:13:53;;;;;;;12.90;10.65;;;;;;;;;;5021780;28;20266;-82
2021/04/10 04:16:21;;;;;;;12.10;10.82;;;;;;;;;;5023619;28;20705;-81
2021/04/10 04:18:48;;;;;;;13.02;11.63;;;;;;;;;;5023774;28;20238;-83
2021/04/10 04:21:15;;;;;;;11.75;10.75;;;;;;;;;;5023662;28;20231;-82
2021/04/10 04:23:42;;;;;;;11.63;10.50;;;;;;;;;;5023839;28;20188;-83
2021/04/10 04:26:09;;;;;;;13.38;11.98;;;;;;;;;;5023852;28;20241;-81
2021/04/10 04:28:36;;;;;;;13.45;11.93;;;;;;;;;;5024953;28;20199;-80
2021/04/10 04:31:03;;;;;;;12.60;11.40;;;;;;;;;;5024590;28;20642;-80
2021/04/10 04:33:31;;;;;;;13.77;12.35;;;;;;;;;;5024303;28;20191;-82
2021/04/10 04:35:59;;;;;;;13.20;11.90;;;;;;;;;;5023667;28;20184;-82
2021/04/10 04:38:26;;;;;;;12.88;11.25;;;;;;;;;;5022829;28;20203;-82
2021/04/10 04:40:53;;;;;;;14.15;12.77;;;;;;;;;;5023197;28;20275;-82
2021/04/10 04:43:20;;;;;;;12.18;10.88;;;;;;;;;;5024131;28;20195;-82
2021/04/10 04:45:47;;;;;;;14.60;13.20;;;;;;;;;;5023557;28;20203;-82
2021/04/10 04:48:13;;;;;;;13.73;12.27;;;;;;;;;;5022884;28;20199;-82
2021/04/10 04:50:41;;;;;;;12.98;11.68;;;;;;;;;;5022221;28;20668;-81
2021/04/10 04:53:08;;;;;;;12.55;11.32;;;;;;;;;;5023285;28;20187;-81
2021/04/10 04:55:35;;;;;;;13.25;11.95;;;;;;;;;;5022564;28;20246;-81
2021/04/10 04:58:02;;;;;;;14.65;12.88;;;;;;;;;;5022596;28;20203;-82
2021/04/10 05:00:30;;;;;;;12.10;10.85;;;;;;;;;;5022919;28;20230;-81
2021/04/10 05:02:57;;;;;;;12.07;10.82;;;;;;;;;;5023058;28;20568;-81
2021/04/10 05:05:24;;;;;;;12.27;11.10;;;;;;;;;;5023298;28;20191;-82
2021/04/10 05:07:52;;;;;;;12.25;10.95;;;;;;;;;;5021516;28;20210;-82
2021/04/10 05:10:19;;;;;;;11.25;9.80;;;;;;;;;;5022434;28;20617;-82
2021/04/10 05:12:46;;;;;;;12.00;10.40;;;;;;;;;;5022340;28;20227;-82
2021/04/10 05:15:14;;;;;;;12.48;11.27;;;;;;;;;;5022412;28;20183;-81
2021/04/10 05:17:41;;;;;;;11.77;10.68;;;;;;;;;;5021743;28;20233;-82
2021/04/10 05:20:09;;;;;;;10.48;9.48;;;;;;;;;;5022614;28;20232;-83
2021/04/10 05:22:36;;;;;;;11.02;9.98;;;;;;;;;;5022373;28;20264;-81
2021/04/10 05:25:05;;;;;;;11.63;10.45;;;;;;;;;;5021769;28;20191;-81
2021/04/10 05:27:32;;;;;;;11.57;10.48;;;;;;;;;;5022290;28;20197;-82
2021/04/10 05:30:00;;;;;;;11.52;10.43;;;;;;;;;;5022496;28;20687;-82
2021/04/10 05:32:27;;;;;;;10.85;9.75;;;;;;;;;;5022250;28;20239;-82
2021/04/10 05:34:54;;;;;;;9.63;8.73;;;;;;;;;;5022253;28;20195;-83
2021/04/10 05:37:21;;;;;;;10.20;9.30;;;;;;;;;;5021815;28;20206;-82
2021/04/10 05:39:49;;;;;;;11.10;10.05;;;;;;;;;;5021763;28;20199;-81
2021/04/10 05:42:17;;;;;;;11.18;9.45;;;;;;;;;;5021809;28;20230;-81
2021/04/10 05:44:44;;;;;;;10.90;9.00;;;;;;;;;;5022074;28;20207;-82
2021/04/10 05:47:12;;;;;;;10.48;9.38;;;;;;;;;;5022336;28;20737;-83
2021/04/10 05:49:38;;;;;;;11.63;10.43;;;;;;;;;;5021174;28;20721;-82
2021/04/10 05:52:06;;;;;;;9.63;8.65;;;;;;;;;;5020530;28;20709;-82
2021/04/10 05:54:33;;;;;;;9.65;8.50;;;;;;;;;;5021461;28;20183;-84
2021/04/10 05:57:00;;;;;;;9.93;8.88;;;;;;;;;;5024359;28;20198;-81
2021/04/10 05:59:28;;;;;;;8.02;7.22;;;;;;;;;;5029529;28;20188;-82
2021/04/10 06:01:56;;;;;;;9.25;8.40;;;;;;;;;;5029936;28;20226;-80
2021/04/10 06:04:25;;;;;;;9.20;8.27;;;;;;;;;;5026317;28;20195;-82
2021/04/10 06:06:52;;;;;;;11.02;9.55;;;;;;;;;;5023184;28;20184;-82
2021/04/10 06:09:19;;;;;;;8.85;7.95;;;;;;;;;;5025603;28;20244;-82
2021/04/10 06:11:46;;;;;;;9.63;8.43;;;;;;;;;;5024094;28;20225;-82
2021/04/10 06:14:14;;;;;;;9.65;8.68;;;;;;;;;;5026730;28;20210;-81
2021/04/10 06:16:42;;;;;;;9.98;7.95;;;;;;;;;;5030103;28;20209;-81
2021/04/10 06:19:09;;;;;;;8.57;7.68;;;;;;;;;;5033894;28;20198;-81
2021/04/10 06:21:36;;;;;;;8.60;7.70;;;;;;;;;;5033127;28;20277;-82
2021/04/10 06:24:03;;;;;;;8.40;7.60;;;;;;;;;;5032305;28;20205;-81
2021/04/10 06:26:30;;;;;;;9.00;8.18;;;;;;;;;;5026085;28;20202;-82
2021/04/10 06:28:58;;;;;;;8.05;7.32;;;;;;;;;;5025057;28;20231;-82
2021/04/10 06:31:25;;;;;;;8.10;7.40;;;;;;;;;;5024312;28;20238;-82
2021/04/10 06:33:53;;;;;;;8.10;7.40;;;;;;;;;;5025417;28;20264;-82
2021/04/10 06:36:20;;;;;;;9.88;8.98;;;;;;;;;;5024671;28;20176;-82
2021/04/10 06:38:47;;;;;;;9.80;8.52;;;;;;;;;;5024757;28;20190;-81
2021/04/10 06:41:14;;;;;;;10.48;9.38;;;;;;;;;;5024508;28;20231;-82
2021/04/10 06:43:42;;;;;;;12.32;9.50;;;;;;;;;;5024503;28;20196;-82
2021/04/10 06:46:10;;;;;;;9.20;8.40;;;;;;;;;;5022410;28;20576;-82
2021/04/10 06:48:39;;;;;;;9.05;8.25;;;;;;;;;;5023065;28;20199;-82
2021/04/10 06:51:09;;;;;;;9.57;8.57;;;;;;;;;;5021875;28;20222;-83
2021/04/10 06:53:44;;;;;;;8.38;7.57;;;;;;;;;;5023240;28;20187;-81
2021/04/10 06:56:12;;;;;;;8.43;7.63;;;;;;;;;;5023262;28;20240;-82
2021/04/10 06:58:47;;;;;;;8.48;7.68;;;;;;;;;;5024425;28;20253;-83
2021/04/10 07:01:17;;;;;;;9.35;8.45;;;;;;;;;;5022677;28;20230;-82
2021/04/10 07:03:45;;;;;;;9.55;8.65;;;;;;;;;;5023621;28;20190;-82
2021/04/10 07:06:15;;;;;;;9.75;7.97;;;;;;;;;;5022726;28;20198;-82
2021/04/10 07:08:42;;;;;;;8.77;7.88;;;;;;;;;;5023284;28;20277;-83
2021/04/10 07:11:10;;;;;;;8.85;7.32;;;;;;;;;;5022645;28;20235;-82
2021/04/10 07:13:37;;;;;;;8.73;7.25;;;;;;;;;;5021497;28;20191;-83
2021/04/10 07:16:05;;;;;;;8.20;7.40;;;;;;;;;;5022111;28;20600;-83
2021/04/10 07:18:32;;;;;;;8.77;7.97;;;;;;;;;;5023193;28;20218;-83
2021/04/10 07:21:17;;;;;;;9.93;8.93;;;;;;;;;;5022725;28;20233;-82
2021/04/10 07:23:47;;;;;;;9.32;8.43;;;;;;;;;;5023325;28;20191;-83
2021/04/10 07:26:15;;;;;;;11.65;10.48;;;;;;;;;;5021927;28;20194;-83
2021/04/10 07:28:44;;;;;;;11.90;10.57;;;;;;;;;;5021914;28;20243;-83
2021/04/10 07:31:12;;;;;;;9.63;8.23;;;;;;;;;;5022478;28;20233;-83
2021/04/10 07:33:42;;;;;;;9.85;8.88;;;;;;;;;;5022942;28;20681;-83
2021/04/10 07:36:11;;;;;;;9.80;8.90;;;;;;;;;;5021338;28;20231;-83
2021/04/10 07:38:42;;;;;;;9.48;8.68;;;;;;;;;;5022693;28;20203;-83
2021/04/10 07:41:19;;;;;;;8.95;8.15;;;;;;;;;;5022026;28;20686;-81
2021/04/10 07:43:46;;;;;;;9.50;8.60;;;;;;;;;;5021565;28;20261;-82
2021/04/10 07:46:17;;;;;;;9.25;8.45;;;;;;;;;;5023115;28;20206;-82
2021/04/10 07:49:05;;;;;;;11.18;9.32;;;;;;;;;;5020222;28;20214;-82
2021/04/10 07:51:35;;;;;;;10.73;9.77;;;;;;;;;;5020625;28;20221;-83
2021/04/10 07:54:23;;;;;;;10.25;9.18;;;;;;;;;;5020705;28;20658;-84
2021/04/10 07:56:58;;;;;;;10.40;9.45;;;;;;;;;;5021074;28;20193;-85
2021/04/10 07:59:27;;;;;;;10.73;9.73;;;;;;;;;;5020937;28;20582;-82
2021/04/10 08:01:56;;;;;;;10.75;9.68;;;;;;;;;;5021159;28;20310;-83
2021/04/10 08:04:23;;;;;;;10.45;9.35;;;;;;;;;;5020115;28;20257;-83
2021/04/10 08:06:55;;;;;;;10.20;9.23;;;;;;;;;;5019643;28;20179;-83
2021/04/10 08:09:35;;;;;;;9.65;8.75;;;;;;;;;;5020265;28;20194;-83
2021/04/10 08:12:07;;;;;;;10.85;9.85;;;;;;;;;;5018356;28;20218;-83
2021/04/10 08:14:43;;;;;;;10.55;9.50;;;;;;;;;;5018651;28;20202;-82
2021/04/10 08:17:11;;;;;;;10.35;9.35;;;;;;;;;;5018598;28;20321;-84
2021/04/10 08:19:40;;;;;;;10.85;9.73;;;;;;;;;;5018841;28;20193;-83
2021/04/10 08:22:08;;;;;;;11.23;10.13;;;;;;;;;;5020171;28;20318;-82
2021/04/10 08:24:42;;;;;;;11.30;10.23;;;;;;;;;;5019256;28;20213;-83
2021/04/10 08:27:10;;;;;;;10.98;9.88;;;;;;;;;;5018479;28;20210;-82
2021/04/10 08:29:38;;;;;;;12.00;10.80;;;;;;;;;;5019310;28;20175;-83
2021/04/10 08:32:07;;;;;;;9.93;9.02;;;;;;;;;;5018809;28;20234;-83
2021/04/10 08:34:35;;;;;;;10.23;9.20;;;;;;;;;;5018565;28;20301;-83
2021/04/10 08:37:05;;;;;;;12.10;10.90;;;;;;;;;;5019199;28;20179;-81
2021/04/10 08:39:34;;;;;;;11.77;10.60;;;;;;;;;;5020336;28;20176;-82
2021/04/10 08:42:04;;;;;;;12.50;11.23;;;;;;;;;;5000370;28;20224;-83
2021/04/10 08:44:33;;;;;;;12.07;10.98;;;;;;;;;;4998469;28;20210;-81
2021/04/10 08:47:03;;;;;;;12.68;11.45;;;;;;;;;;4998814;28;20649;-83
2021/04/10 08:49:34;;;;;;;13.23;11.85;;;;;;;;;;4999457;28;20226;-83
2021/04/10 08:52:04;;;;;;;16.52;14.35;;;;;;;;;;4999767;28;20246;-83
2021/04/10 08:54:37;;;;;;;17.35;15.43;;;;;;;;;;4999224;28;20246;-84
2021/04/10 08:57:11;;;;;;;13.43;12.02;;;;;;;;;;4998563;28;20180;-82
2021/04/10 08:59:44;;;;;;;18.52;16.45;;;;;;;;;;4998296;28;20695;-83
2021/04/10 09:02:18;;;;;;;13.30;11.98;;;;;;;;;;4998530;28;20231;-83
2021/04/10 09:05:09;;;;;;;15.10;13.70;;;;;;;;;;4998698;28;20414;-83
2021/04/10 09:08:05;;;;;;;13.40;12.10;;;;;;;;;;4999161;28;20650;-83
2021/04/10 09:10:49;;;;;;;10.95;9.93;;;;;;;;;;4998404;28;20192;-83
2021/04/10 09:13:47;;;;;;;10.70;9.70;;;;;;;;;;4999333;28;20203;-83
2021/04/10 09:16:37;;;;;;;12.90;11.63;;;;;;;;;;4998235;28;20278;-83
2021/04/10 09:19:14;;;;;;;11.60;10.52;;;;;;;;;;4999012;28;20196;-82
2021/04/10 09:21:45;;;;;;;12.27;11.07;;;;;;;;;;4998042;28;20306;-82
2021/04/10 09:24:28;;;;;;;11.27;10.18;;;;;;;;;;4998035;28;20180;-83
2021/04/10 09:27:07;;;;;;;11.75;10.60;;;;;;;;;;4997861;28;20200;-83
2021/04/10 09:29:53;;;;;;;11.52;10.32;;;;;;;;;;4996225;28;20199;-83
2021/04/10 09:32:39;;;;;;;11.27;10.23;;;;;;;;;;4998893;28;20262;-83
2021/04/10 09:35:10;;;;;;;10.50;9.60;;;;;;;;;;4997987;28;20519;-83
2021/04/10 09:37:51;;;;;;;10.52;9.52;;;;;;;;;;5000674;28;20190;-83
2021/04/10 09:40:39;;;;;;;11.32;10.23;;;;;;;;;;4983178;28;20603;-82
2021/04/10 09:43:07;;;;;;;13.00;11.70;;;;;;;;;;4975672;28;20306;-83
2021/04/10 09:45:37;;;;;;;12.48;11.18;;;;;;;;;;4983434;28;20247;-82
2021/04/10 09:48:32;;;;;;;11.38;10.30;;;;;;;;;;4982653;28;20185;-82
2021/04/10 09:51:13;;;;;;;12.52;11.23;;;;;;;;;;4983403;28;20780;-82
2021/04/10 09:53:41;;;;;;;12.05;10.75;;;;;;;;;;4982857;28;20211;-82
2021/04/10 09:56:14;;;;;;;10.82;9.82;;;;;;;;;;4981724;28;20246;-83
2021/04/10 09:58:50;;;;;;;12.48;11.23;;;;;;;;;;4983118;28;20255;-84
2021/04/10 10:01:25;;;;;;;13.32;12.02;;;;;;;;;;4982434;28;20220;-83
2021/04/10 10:03:53;;;;;;;14.55;13.00;;;;;;;;;;4982782;28;20228;-84
2021/04/10 10:06:35;;;;;;;12.40;11.15;;;;;;;;;;4981988;28;20208;-82
2021/04/10 10:09:57;;;;;;;11.80;10.73;;;;;;;;;;4980248;28;20227;-83
2021/04/10 10:12:43;;;;;;;11.05;10.13;;;;;;;;;;4970939;28;20220;-83
2021/04/10 10:15:22;;;;;;;10.10;9.20;;;;;;;;;;4982165;28;20196;-83
2021/04/10 10:17:49;;;;;;;13.07;10.35;;;;;;;;;;5003992;28;20192;-82
2021/04/10 10:20:18;;;;;;;10.38;9.48;;;;;;;;;;5002410;28;20180;-83
2021/04/10 10:22:46;;;;;;;11.82;10.27;;;;;;;;;;5001387;28;20307;-83
2021/04/10 10:25:15;;;;;;;13.18;11.85;;;;;;;;;;5001726;28;20214;-84
2021/04/10 10:27:45;;;;;;;12.88;11.68;;;;;;;;;;5003003;28;20208;-84
2021/04/10 10:30:20;;;;;;;12.02;10.82;;;;;;;;;;5003540;28;20662;-83
2021/04/10 10:32:49;;;;;;;11.68;10.68;;;;;;;;;;5029725;28;20280;-83
2021/04/10 10:35:19;;;;;;;12.43;11.27;;;;;;;;;;5026762;28;20258;-83
2021/04/10 10:37:47;;;;;;;11.88;10.88;;;;;;;;;;5024708;28;20213;-83
2021/04/10 10:40:20;;;;;;;13.07;11.88;;;;;;;;;;5038496;28;20573;-82
2021/04/10 10:43:00;;;;;;;14.82;13.45;;;;;;;;;;5023336;28;20771;-83
2021/04/10 10:45:45;;;;;;;11.90;10.73;;;;;;;;;;5029638;28;20207;-83
2021/04/10 10:48:18;;;;;;;11.98;10.77;;;;;;;;;;5027978;28;20337;-83
2021/04/10 10:50:45;;;;;;;12.38;11.20;;;;;;;;;;5026074;28;20584;-83
2021/04/10 10:53:14;;;;;;;12.10;11.00;;;;;;;;;;5021525;28;20237;-83
2021/04/10 10:56:10;;;;;;;11.45;10.43;;;;;;;;;;5021069;28;20258;-83
2021/04/10 10:58:41;;;;;;;13.32;12.13;;;;;;;;;;5020731;28;20187;-83
2021/04/10 11:01:32;;;;;;;10.63;9.80;;;;;;;;;;5018630;28;20577;-86
2021/04/10 11:04:05;;;;;;;13.70;12.45;;;;;;;;;;5020355;28;20234;-85
2021/04/10 11:06:34;;;;;;;13.02;11.73;;;;;;;;;;5033008;28;20233;-84
2021/04/10 11:09:04;;;;;;;14.32;13.02;;;;;;;;;;5023304;28;20203;-85
2021/04/10 11:11:36;;;;;;;12.40;11.20;;;;;;;;;;5019600;28;20226;-82
2021/04/10 11:14:06;;;;;;;12.77;11.52;;;;;;;;;;4998896;28;20191;-83
2021/04/10 11:16:41;;;;;;;11.75;10.75;;;;;;;;;;4998715;28;20188;-84
2021/04/10 11:19:10;;;;;;;13.80;12.48;;;;;;;;;;4998428;28;20206;-84
2021/04/10 11:21:37;;;;;;;12.15;11.07;;;;;;;;;;5004844;28;20288;-83
2021/04/10 11:24:14;;;;;;;11.27;10.25;;;;;;;;;;5021128;28;20233;-84
2021/04/10 11:26:46;;;;;;;10.52;9.63;;;;;;;;;;5020182;28;20755;-84
2021/04/10 11:29:26;;;;;;;10.55;9.55;;;;;;;;;;5022088;28;20201;-84
2021/04/10 11:32:18;;;;;;;12.93;11.73;;;;;;;;;;5013429;28;20242;-83
2021/04/10 11:35:02;;;;;;;12.07;10.90;;;;;;;;;;4999899;28;20197;-83
2021/04/10 11:37:44;;;;;;;11.57;10.57;;;;;;;;;;4998387;28;20250;-84
2021/04/10 11:40:25;;;;;;;13.55;12.25;;;;;;;;;;4998352;28;20246;-83
2021/04/10 11:42:55;;;;;;;12.55;11.35;;;;;;;;;;4997209;28;20324;-83
2021/04/10 11:45:35;;;;;;;14.63;13.20;;;;;;;;;;4998449;28;20188;-84
2021/04/10 11:48:15;;;;;;;12.38;11.20;;;;;;;;;;4999707;28;20766;-84
2021/04/10 11:50:50;;;;;;;13.88;12.55;;;;;;;;;;4989213;28;20338;-83
2021/04/10 11:53:26;;;;;;;13.18;11.90;;;;;;;;;;4998613;28;20205;-83
2021/04/10 11:55:55;;;;;;;14.50;13.10;;;;;;;;;;4998131;28;20662;-84
2021/04/10 11:58:34;;;;;;;12.55;11.35;;;;;;;;;;4999031;28;20187;-85
2021/04/10 12:01:09;;;;;;;10.85;9.85;;;;;;;;;;4998230;28;20222;-84
2021/04/10 12:03:53;;;;;;;10.98;9.85;;;;;;;;;;4987347;28;20293;-86
2021/04/10 12:06:29;;;;;;;14.43;13.13;;;;;;;;;;4977374;28;20195;-83
2021/04/10 12:08:59;;;;;;;12.15;11.05;;;;;;;;;;4993421;28;20196;-83
2021/04/10 12:11:33;;;;;;;10.73;9.63;;;;;;;;;;4996004;28;20224;-84
2021/04/10 12:14:00;;;;;;;12.25;11.15;;;;;;;;;;4993080;28;20203;-83
2021/04/10 12:16:27;;;;;;;12.45;11.25;;;;;;;;;;5000125;28;20219;-84
2021/04/10 12:18:55;;;;;;;11.65;10.65;;;;;;;;;;5003569;28;20708;-82
2021/04/10 12:21:22;;;;;;;10.57;9.43;;;;;;;;;;5003057;28;20670;-82
2021/04/10 12:23:49;;;;;;;10.43;9.52;;;;;;;;;;4999143;28;20254;-83
2021/04/10 12:26:20;;;;;;;11.32;10.18;;;;;;;;;;4995849;28;20206;-83
2021/04/10 12:28:47;;;;;;;12.80;11.60;;;;;;;;;;4995734;28;20237;-85
2021/04/10 12:31:14;;;;;;;10.52;9.52;;;;;;;;;;4998698;28;20260;-83
2021/04/10 12:33:42;;;;;;;11.50;10.38;;;;;;;;;;5015570;28;20669;-84
2021/04/10 12:36:10;;;;;;;9.93;9.02;;;;;;;;;;5015508;28;20230;-84
2021/04/10 12:38:37;;;;;;;11.65;10.55;;;;;;;;;;5022020;28;20195;-82
2021/04/10 12:41:07;;;;;;;10.73;9.63;;;;;;;;;;5023397;28;20215;-82
2021/04/10 12:43:35;;;;;;;12.05;11.00;;;;;;;;;;5019156;28;20219;-82
2021/04/10 12:46:02;;;;;;;11.48;10.48;;;;;;;;;;5022517;28;20201;-82
2021/04/10 12:48:31;;;;;;;11.68;10.57;;;;;;;;;;5023342;28;20202;-81
2021/04/10 12:51:00;;;;;;;11.93;10.88;;;;;;;;;;5013802;28;20237;-81
2021/04/10 12:53:28;;;;;;;12.90;11.60;;;;;;;;;;5012655;28;20210;-82
2021/04/10 12:55:57;;;;;;;10.52;9.52;;;;;;;;;;5012639;28;20722;-81
2021/04/10 12:58:25;;;;;;;11.65;10.43;;;;;;;;;;5012928;28;20573;-82
2021/04/10 13:01:03;;;;;;;11.90;10.60;;;;;;;;;;5012786;28;20681;-82
2021/04/10 13:03:32;;;;;;;11.57;10.38;;;;;;;;;;5011724;28;20218;-82
2021/04/10 13:06:01;;;;;;;12.30;11.18;;;;;;;;;;5013593;28;20191;-82
2021/04/10 13:08:28;;;;;;;12.02;10.63;;;;;;;;;;5013925;28;20183;-83
2021/04/10 13:10:55;;;;;;;12.20;10.93;;;;;;;;;;5013306;28;20220;-82
2021/04/10 13:13:36;;;;;;;12.43;10.68;;;;;;;;;;5013607;28;20624;-81
2021/04/10 13:16:10;;;;;;;11.38;10.27;;;;;;;;;;5010901;28;20351;-81
2021/04/10 13:18:44;;;;;;;11.05;9.95;;;;;;;;;;5013266;28;20604;-82
2021/04/10 13:21:12;;;;;;;12.40;10.25;;;;;;;;;;5012398;28;20223;-83
2021/04/10 13:23:42;;;;;;;11.57;10.27;;;;;;;;;;5008612;28;20215;-82
2021/04/10 13:26:10;;;;;;;11.38;10.15;;;;;;;;;;4993960;28;20215;-83
2021/04/10 13:28:39;;;;;;;10.57;9.38;;;;;;;;;;4993538;28;20214;-81
2021/04/10 13:31:06;;;;;;;10.98;9.80;;;;;;;;;;4992717;28;20224;-81
2021/04/10 13:33:35;;;;;;;11.27;8.57;;;;;;;;;;4994180;28;20192;-81
2021/04/10 13:36:02;;;;;;;11.63;10.43;;;;;;;;;;4995803;28;20204;-85
2021/04/10 13:38:29;;;;;;;10.52;9.48;;;;;;;;;;4997063;28;20190;-84
2021/04/10 13:40:56;;;;;;;10.30;9.30;;;;;;;;;;4997553;28;20269;-85
2021/04/10 13:43:23;;;;;;;8.57;7.75;;;;;;;;;;4996983;28;20227;-83
2021/04/10 13:45:51;;;;;;;9.82;8.85;;;;;;;;;;4996414;28;20211;-84
2021/04/10 13:48:18;;;;;;;10.27;9.13;;;;;;;;;;4994290;28;20188;-85
2021/04/10 13:50:45;;;;;;;9.52;8.63;;;;;;;;;;4996468;28;20274;-85
2021/04/10 13:53:11;;;;;;;9.32;8.43;;;;;;;;;;4996653;28;20203;-85
2021/04/10 13:55:38;;;;;;;9.85;8.85;;;;;;;;;;4995917;28;20297;-84
2021/04/10 13:58:05;;;;;;;9.80;8.40;;;;;;;;;;4995618;28;20208;-83
2021/04/10 14:00:32;;;;;;;9.27;7.75;;;;;;;;;;4996117;28;20255;-85
2021/04/10 14:03:00;;;;;;;8.52;7.65;;;;;;;;;;4996446;28;20210;-84
2021/04/10 14:05:28;;;;;;;7.63;6.88;;;;;;;;;;4996235;28;20212;-83
2021/04/10 14:07:55;;;;;;;8.05;7.25;;;;;;;;;;4996484;28;20223;-84
2021/04/10 14:10:25;;;;;;;7.60;6.90;;;;;;;;;;4996371;28;20247;-85
2021/04/10 14:12:52;;;;;;;10.00;7.65;;;;;;;;;;4996462;28;20195;-84
2021/04/10 14:15:23;;;;;;;8.55;7.75;;;;;;;;;;4995805;28;20713;-83
2021/04/10 14:17:50;;;;;;;9.00;7.63;;;;;;;;;;4996920;28;20191;-85
2021/04/10 14:20:20;;;;;;;7.57;6.88;;;;;;;;;;4996444;28;20275;-85
2021/04/10 14:22:48;;;;;;;8.20;7.10;;;;;;;;;;4995786;28;20227;-85
2021/04/10 14:25:17;;;;;;;8.00;7.20;;;;;;;;;;4999419;28;20233;-85
2021/04/10 14:27:44;;;;;;;7.55;6.72;;;;;;;;;;4999721;28;20214;-84
2021/04/10 14:30:16;;;;;;;6.97;6.38;;;;;;;;;;4999284;28;20180;-85
2021/04/10 14:32:44;;;;;;;6.50;5.90;;;;;;;;;;4999559;28;20235;-86
2021/04/10 14:35:13;;;;;;;6.68;6.03;;;;;;;;;;4999124;28;20192;-85
2021/04/10 14:37:40;;;;;;;7.82;7.00;;;;;;;;;;4999602;28;20195;-83
2021/04/10 14:40:10;;;;;;;11.70;9.18;;;;;;;;;;5000252;28;20650;-85
2021/04/10 14:42:37;;;;;;;9.18;8.23;;;;;;;;;;4999522;28;20242;-84
2021/04/10 14:45:07;;;;;;;7.22;6.53;;;;;;;;;;4999006;28;20670;-83
2021/04/10 14:47:33;;;;;;;8.73;6.40;;;;;;;;;;4999764;28;20208;-85
2021/04/10 14:50:00;;;;;;;6.35;5.68;;;;;;;;;;4999364;28;20720;-84